Schedule Details


Flight Number: CTN304
Departure: Kastela (LDSP) at 18:30
Arrival: Eleftherios Venizelos Intl (LGAV) at 21:05
Route: SiPAL UL607 NERRA L607 DBK UL607 PIKOS L607 XORKI

Weather Information
LDSP 251500Z 11008KT 080V140 9999 FEW020 BKN035 13/10 Q1023 NOSIG
LGAV 251450Z 21008KT 9999 FEW025 13/08 Q1026 NOSIG
Schedule Frequency

Route Map